sensor_id;sensor_type;location;lat;lon;timestamp;P1;durP1;ratioP1;P2;durP2;ratioP2
1699;SDS011;847;48.058;7.810;2023-04-29T00:01:04;3.30;;;3.10;;
1699;SDS011;847;48.058;7.810;2023-04-29T00:03:30;3.43;;;3.03;;
1699;SDS011;847;48.058;7.810;2023-04-29T00:05:57;3.17;;;2.60;;
1699;SDS011;847;48.058;7.810;2023-04-29T00:08:24;3.73;;;2.80;;
1699;SDS011;847;48.058;7.810;2023-04-29T00:10:51;4.40;;;3.20;;
1699;SDS011;847;48.058;7.810;2023-04-29T00:13:19;4.60;;;3.00;;
1699;SDS011;847;48.058;7.810;2023-04-29T00:15:46;3.47;;;3.17;;
1699;SDS011;847;48.058;7.810;2023-04-29T00:18:13;4.00;;;2.67;;
1699;SDS011;847;48.058;7.810;2023-04-29T00:20:40;3.23;;;2.93;;
1699;SDS011;847;48.058;7.810;2023-04-29T00:23:07;4.77;;;2.93;;
1699;SDS011;847;48.058;7.810;2023-04-29T00:25:34;4.00;;;3.13;;
1699;SDS011;847;48.058;7.810;2023-04-29T00:28:02;6.83;;;3.37;;
1699;SDS011;847;48.058;7.810;2023-04-29T00:30:31;4.53;;;3.10;;
1699;SDS011;847;48.058;7.810;2023-04-29T00:32:58;5.40;;;3.20;;
1699;SDS011;847;48.058;7.810;2023-04-29T00:35:25;3.70;;;3.40;;
1699;SDS011;847;48.058;7.810;2023-04-29T00:37:52;3.77;;;3.40;;
1699;SDS011;847;48.058;7.810;2023-04-29T00:40:19;4.73;;;2.93;;
1699;SDS011;847;48.058;7.810;2023-04-29T00:42:46;5.27;;;3.07;;
1699;SDS011;847;48.058;7.810;2023-04-29T00:45:12;4.17;;;2.80;;
1699;SDS011;847;48.058;7.810;2023-04-29T00:47:40;4.30;;;2.93;;
1699;SDS011;847;48.058;7.810;2023-04-29T00:50:07;3.43;;;2.60;;
1699;SDS011;847;48.058;7.810;2023-04-29T00:52:34;3.53;;;3.23;;
1699;SDS011;847;48.058;7.810;2023-04-29T00:55:03;4.10;;;3.07;;
1699;SDS011;847;48.058;7.810;2023-04-29T00:57:31;3.27;;;2.97;;
1699;SDS011;847;48.058;7.810;2023-04-29T00:59:59;4.20;;;3.07;;
1699;SDS011;847;48.058;7.810;2023-04-29T01:02:27;9.60;;;3.50;;
1699;SDS011;847;48.058;7.810;2023-04-29T01:04:55;3.77;;;3.43;;
1699;SDS011;847;48.058;7.810;2023-04-29T01:07:22;3.23;;;2.93;;
1699;SDS011;847;48.058;7.810;2023-04-29T01:09:57;2.70;;;2.50;;
1699;SDS011;847;48.058;7.810;2023-04-29T01:12:31;4.80;;;2.70;;
1699;SDS011;847;48.058;7.810;2023-04-29T01:15:03;4.00;;;3.60;;
1699;SDS011;847;48.058;7.810;2023-04-29T01:17:35;3.20;;;2.70;;
1699;SDS011;847;48.058;7.810;2023-04-29T01:20:09;3.10;;;2.47;;
1699;SDS011;847;48.058;7.810;2023-04-29T01:22:37;3.13;;;2.57;;
1699;SDS011;847;48.058;7.810;2023-04-29T01:25:05;2.70;;;2.50;;
1699;SDS011;847;48.058;7.810;2023-04-29T01:27:35;3.03;;;2.70;;
1699;SDS011;847;48.058;7.810;2023-04-29T01:30:09;4.97;;;2.90;;
1699;SDS011;847;48.058;7.810;2023-04-29T01:32:52;2.70;;;2.50;;
1699;SDS011;847;48.058;7.810;2023-04-29T01:35:29;2.80;;;2.50;;
1699;SDS011;847;48.058;7.810;2023-04-29T01:38:08;2.80;;;2.40;;
1699;SDS011;847;48.058;7.810;2023-04-29T01:40:48;3.70;;;2.80;;
1699;SDS011;847;48.058;7.810;2023-04-29T01:43:23;5.57;;;2.90;;
1699;SDS011;847;48.058;7.810;2023-04-29T01:45:52;3.90;;;2.97;;
1699;SDS011;847;48.058;7.810;2023-04-29T01:48:21;3.03;;;2.70;;
1699;SDS011;847;48.058;7.810;2023-04-29T01:50:49;4.00;;;2.70;;
1699;SDS011;847;48.058;7.810;2023-04-29T01:53:16;3.70;;;2.63;;
1699;SDS011;847;48.058;7.810;2023-04-29T01:55:42;3.37;;;2.70;;
1699;SDS011;847;48.058;7.810;2023-04-29T01:58:10;3.10;;;2.67;;
1699;SDS011;847;48.058;7.810;2023-04-29T02:00:37;3.60;;;2.60;;
1699;SDS011;847;48.058;7.810;2023-04-29T02:03:04;3.27;;;2.50;;
1699;SDS011;847;48.058;7.810;2023-04-29T02:05:30;2.57;;;2.37;;
1699;SDS011;847;48.058;7.810;2023-04-29T02:07:58;2.70;;;2.50;;
1699;SDS011;847;48.058;7.810;2023-04-29T02:10:25;6.00;;;3.27;;
1699;SDS011;847;48.058;7.810;2023-04-29T02:12:51;3.57;;;2.70;;
1699;SDS011;847;48.058;7.810;2023-04-29T02:15:19;2.83;;;2.63;;
1699;SDS011;847;48.058;7.810;2023-04-29T02:17:46;3.07;;;2.30;;
1699;SDS011;847;48.058;7.810;2023-04-29T02:20:13;3.00;;;2.53;;
1699;SDS011;847;48.058;7.810;2023-04-29T02:22:40;4.00;;;2.67;;
1699;SDS011;847;48.058;7.810;2023-04-29T02:25:07;2.97;;;2.70;;
1699;SDS011;847;48.058;7.810;2023-04-29T02:27:35;3.67;;;2.53;;
1699;SDS011;847;48.058;7.810;2023-04-29T02:30:02;2.30;;;2.10;;
1699;SDS011;847;48.058;7.810;2023-04-29T02:32:30;2.90;;;2.60;;
1699;SDS011;847;48.058;7.810;2023-04-29T02:34:57;2.57;;;2.37;;
1699;SDS011;847;48.058;7.810;2023-04-29T02:37:24;3.77;;;2.60;;
1699;SDS011;847;48.058;7.810;2023-04-29T02:39:51;3.77;;;3.47;;
1699;SDS011;847;48.058;7.810;2023-04-29T02:42:18;3.40;;;2.70;;
1699;SDS011;847;48.058;7.810;2023-04-29T02:44:45;4.57;;;2.83;;
1699;SDS011;847;48.058;7.810;2023-04-29T02:47:11;5.00;;;2.90;;
1699;SDS011;847;48.058;7.810;2023-04-29T02:49:40;5.53;;;2.50;;
1699;SDS011;847;48.058;7.810;2023-04-29T02:52:07;3.17;;;2.40;;
1699;SDS011;847;48.058;7.810;2023-04-29T02:54:34;2.50;;;2.30;;
1699;SDS011;847;48.058;7.810;2023-04-29T02:57:00;2.90;;;2.70;;
1699;SDS011;847;48.058;7.810;2023-04-29T02:59:27;3.20;;;2.97;;
1699;SDS011;847;48.058;7.810;2023-04-29T03:01:54;4.10;;;3.07;;
1699;SDS011;847;48.058;7.810;2023-04-29T03:04:21;3.77;;;3.47;;
1699;SDS011;847;48.058;7.810;2023-04-29T03:06:49;2.83;;;2.60;;
1699;SDS011;847;48.058;7.810;2023-04-29T03:09:16;3.87;;;3.07;;
1699;SDS011;847;48.058;7.810;2023-04-29T03:11:42;5.60;;;3.00;;
1699;SDS011;847;48.058;7.810;2023-04-29T03:14:09;7.03;;;2.87;;
1699;SDS011;847;48.058;7.810;2023-04-29T03:16:36;2.93;;;2.70;;
1699;SDS011;847;48.058;7.810;2023-04-29T03:19:03;5.57;;;3.33;;
1699;SDS011;847;48.058;7.810;2023-04-29T03:21:30;4.07;;;3.67;;
1699;SDS011;847;48.058;7.810;2023-04-29T03:23:59;4.00;;;2.73;;
1699;SDS011;847;48.058;7.810;2023-04-29T03:26:25;3.50;;;3.20;;
1699;SDS011;847;48.058;7.810;2023-04-29T03:28:52;3.70;;;3.40;;
1699;SDS011;847;48.058;7.810;2023-04-29T03:31:19;3.60;;;2.70;;
1699;SDS011;847;48.058;7.810;2023-04-29T03:33:47;3.00;;;2.80;;
1699;SDS011;847;48.058;7.810;2023-04-29T03:36:14;5.30;;;2.70;;
1699;SDS011;847;48.058;7.810;2023-04-29T03:38:41;2.90;;;2.60;;
1699;SDS011;847;48.058;7.810;2023-04-29T03:41:09;2.77;;;2.53;;
1699;SDS011;847;48.058;7.810;2023-04-29T03:43:36;3.43;;;3.13;;
1699;SDS011;847;48.058;7.810;2023-04-29T03:46:03;7.10;;;3.27;;
1699;SDS011;847;48.058;7.810;2023-04-29T03:48:29;4.47;;;2.90;;
1699;SDS011;847;48.058;7.810;2023-04-29T03:50:56;2.93;;;2.73;;
1699;SDS011;847;48.058;7.810;2023-04-29T03:53:24;2.70;;;2.50;;
1699;SDS011;847;48.058;7.810;2023-04-29T03:55:51;3.67;;;3.10;;
1699;SDS011;847;48.058;7.810;2023-04-29T03:58:19;3.40;;;3.00;;
1699;SDS011;847;48.058;7.810;2023-04-29T04:00:47;3.27;;;3.07;;
1699;SDS011;847;48.058;7.810;2023-04-29T04:03:14;5.63;;;2.97;;
1699;SDS011;847;48.058;7.810;2023-04-29T04:05:41;4.47;;;4.07;;
1699;SDS011;847;48.058;7.810;2023-04-29T04:08:07;4.20;;;2.53;;
1699;SDS011;847;48.058;7.810;2023-04-29T04:10:34;2.90;;;2.70;;
1699;SDS011;847;48.058;7.810;2023-04-29T04:13:01;3.20;;;2.90;;
1699;SDS011;847;48.058;7.810;2023-04-29T04:15:29;3.30;;;2.80;;
1699;SDS011;847;48.058;7.810;2023-04-29T04:17:56;3.10;;;2.80;;
1699;SDS011;847;48.058;7.810;2023-04-29T04:20:23;4.83;;;2.97;;
1699;SDS011;847;48.058;7.810;2023-04-29T04:22:49;6.70;;;3.10;;
1699;SDS011;847;48.058;7.810;2023-04-29T04:25:18;4.57;;;3.20;;
1699;SDS011;847;48.058;7.810;2023-04-29T04:27:45;3.00;;;2.70;;
1699;SDS011;847;48.058;7.810;2023-04-29T04:30:12;3.97;;;2.63;;
1699;SDS011;847;48.058;7.810;2023-04-29T04:32:40;3.87;;;2.77;;
1699;SDS011;847;48.058;7.810;2023-04-29T04:35:07;5.30;;;3.20;;
1699;SDS011;847;48.058;7.810;2023-04-29T04:37:34;4.43;;;2.90;;
1699;SDS011;847;48.058;7.810;2023-04-29T04:40:01;3.30;;;2.83;;
1699;SDS011;847;48.058;7.810;2023-04-29T04:42:27;5.70;;;3.03;;
1699;SDS011;847;48.058;7.810;2023-04-29T04:44:54;3.30;;;3.00;;
1699;SDS011;847;48.058;7.810;2023-04-29T04:47:21;4.37;;;3.10;;
1699;SDS011;847;48.058;7.810;2023-04-29T04:49:49;5.90;;;3.07;;
1699;SDS011;847;48.058;7.810;2023-04-29T04:52:18;8.03;;;3.73;;
1699;SDS011;847;48.058;7.810;2023-04-29T04:54:46;3.77;;;3.07;;
1699;SDS011;847;48.058;7.810;2023-04-29T04:57:13;2.50;;;2.30;;
1699;SDS011;847;48.058;7.810;2023-04-29T04:59:40;2.33;;;2.13;;
1699;SDS011;847;48.058;7.810;2023-04-29T05:02:07;3.23;;;2.50;;
1699;SDS011;847;48.058;7.810;2023-04-29T05:04:34;3.17;;;2.97;;
1699;SDS011;847;48.058;7.810;2023-04-29T05:07:02;2.40;;;2.20;;
1699;SDS011;847;48.058;7.810;2023-04-29T05:09:28;4.73;;;3.10;;
1699;SDS011;847;48.058;7.810;2023-04-29T05:11:56;5.57;;;2.80;;
1699;SDS011;847;48.058;7.810;2023-04-29T05:14:23;2.90;;;2.70;;
1699;SDS011;847;48.058;7.810;2023-04-29T05:16:50;2.90;;;2.53;;
1699;SDS011;847;48.058;7.810;2023-04-29T05:19:17;3.33;;;2.87;;
1699;SDS011;847;48.058;7.810;2023-04-29T05:21:44;4.37;;;3.10;;
1699;SDS011;847;48.058;7.810;2023-04-29T05:24:12;3.27;;;2.97;;
1699;SDS011;847;48.058;7.810;2023-04-29T05:26:39;3.77;;;3.40;;
1699;SDS011;847;48.058;7.810;2023-04-29T05:29:07;3.10;;;2.90;;
1699;SDS011;847;48.058;7.810;2023-04-29T05:31:34;3.17;;;2.50;;
1699;SDS011;847;48.058;7.810;2023-04-29T05:34:01;2.83;;;2.50;;
1699;SDS011;847;48.058;7.810;2023-04-29T05:36:27;3.30;;;2.60;;
1699;SDS011;847;48.058;7.810;2023-04-29T05:38:54;2.90;;;2.60;;
1699;SDS011;847;48.058;7.810;2023-04-29T05:41:22;3.77;;;2.60;;
1699;SDS011;847;48.058;7.810;2023-04-29T05:43:49;2.57;;;2.37;;
1699;SDS011;847;48.058;7.810;2023-04-29T05:46:16;4.03;;;1.97;;
1699;SDS011;847;48.058;7.810;2023-04-29T05:48:44;3.60;;;2.40;;
1699;SDS011;847;48.058;7.810;2023-04-29T05:51:11;4.97;;;2.67;;
1699;SDS011;847;48.058;7.810;2023-04-29T05:53:38;1.80;;;1.70;;
1699;SDS011;847;48.058;7.810;2023-04-29T05:56:05;4.50;;;2.50;;
1699;SDS011;847;48.058;7.810;2023-04-29T05:58:33;3.00;;;2.70;;
1699;SDS011;847;48.058;7.810;2023-04-29T06:01:00;1.90;;;1.80;;
1699;SDS011;847;48.058;7.810;2023-04-29T06:03:28;3.60;;;1.93;;
1699;SDS011;847;48.058;7.810;2023-04-29T06:05:55;2.83;;;2.00;;
1699;SDS011;847;48.058;7.810;2023-04-29T06:08:22;2.90;;;1.77;;
1699;SDS011;847;48.058;7.810;2023-04-29T06:10:49;3.33;;;2.03;;
1699;SDS011;847;48.058;7.810;2023-04-29T06:13:16;4.77;;;2.00;;
1699;SDS011;847;48.058;7.810;2023-04-29T06:15:45;3.80;;;2.00;;
1699;SDS011;847;48.058;7.810;2023-04-29T06:18:11;2.70;;;2.50;;
1699;SDS011;847;48.058;7.810;2023-04-29T06:20:38;3.37;;;2.13;;
1699;SDS011;847;48.058;7.810;2023-04-29T06:23:05;2.13;;;2.00;;
1699;SDS011;847;48.058;7.810;2023-04-29T06:25:32;2.13;;;2.03;;
1699;SDS011;847;48.058;7.810;2023-04-29T06:27:59;3.20;;;1.93;;
1699;SDS011;847;48.058;7.810;2023-04-29T06:30:26;4.00;;;2.40;;
1699;SDS011;847;48.058;7.810;2023-04-29T06:32:54;7.53;;;2.10;;
1699;SDS011;847;48.058;7.810;2023-04-29T06:35:21;2.83;;;2.50;;
1699;SDS011;847;48.058;7.810;2023-04-29T06:37:47;2.33;;;2.20;;
1699;SDS011;847;48.058;7.810;2023-04-29T06:40:15;3.23;;;2.43;;
1699;SDS011;847;48.058;7.810;2023-04-29T06:42:41;2.33;;;2.13;;
1699;SDS011;847;48.058;7.810;2023-04-29T06:45:09;2.40;;;2.20;;
1699;SDS011;847;48.058;7.810;2023-04-29T06:47:35;2.30;;;2.10;;
1699;SDS011;847;48.058;7.810;2023-04-29T06:50:04;3.63;;;1.90;;
1699;SDS011;847;48.058;7.810;2023-04-29T06:52:31;2.63;;;2.17;;
1699;SDS011;847;48.058;7.810;2023-04-29T06:54:58;2.30;;;2.00;;
1699;SDS011;847;48.058;7.810;2023-04-29T06:57:25;3.17;;;2.63;;
1699;SDS011;847;48.058;7.810;2023-04-29T06:59:52;2.90;;;2.60;;
1699;SDS011;847;48.058;7.810;2023-04-29T07:02:18;2.67;;;2.40;;
1699;SDS011;847;48.058;7.810;2023-04-29T07:04:45;3.17;;;2.93;;
1699;SDS011;847;48.058;7.810;2023-04-29T07:07:14;4.00;;;2.57;;
1699;SDS011;847;48.058;7.810;2023-04-29T07:09:41;3.47;;;2.17;;
1699;SDS011;847;48.058;7.810;2023-04-29T07:12:08;2.43;;;1.87;;
1699;SDS011;847;48.058;7.810;2023-04-29T07:14:35;2.60;;;2.40;;
1699;SDS011;847;48.058;7.810;2023-04-29T07:17:02;3.33;;;2.30;;
1699;SDS011;847;48.058;7.810;2023-04-29T07:19:29;2.73;;;2.40;;
1699;SDS011;847;48.058;7.810;2023-04-29T07:21:56;3.67;;;2.57;;
1699;SDS011;847;48.058;7.810;2023-04-29T07:24:24;3.03;;;2.77;;
1699;SDS011;847;48.058;7.810;2023-04-29T07:26:51;4.20;;;2.70;;
1699;SDS011;847;48.058;7.810;2023-04-29T07:29:18;2.27;;;2.07;;
1699;SDS011;847;48.058;7.810;2023-04-29T07:31:45;2.27;;;2.07;;
1699;SDS011;847;48.058;7.810;2023-04-29T07:34:11;3.33;;;2.40;;
1699;SDS011;847;48.058;7.810;2023-04-29T07:36:38;2.53;;;2.33;;
1699;SDS011;847;48.058;7.810;2023-04-29T07:39:05;2.57;;;2.37;;
1699;SDS011;847;48.058;7.810;2023-04-29T07:41:33;4.53;;;2.90;;
1699;SDS011;847;48.058;7.810;2023-04-29T07:44:00;2.83;;;2.63;;
1699;SDS011;847;48.058;7.810;2023-04-29T07:46:27;3.07;;;2.43;;
1699;SDS011;847;48.058;7.810;2023-04-29T07:48:53;2.70;;;2.50;;
1699;SDS011;847;48.058;7.810;2023-04-29T07:51:20;2.30;;;2.10;;
1699;SDS011;847;48.058;7.810;2023-04-29T07:53:47;2.57;;;2.37;;
1699;SDS011;847;48.058;7.810;2023-04-29T07:56:13;2.53;;;2.33;;
1699;SDS011;847;48.058;7.810;2023-04-29T07:58:41;2.67;;;2.47;;
1699;SDS011;847;48.058;7.810;2023-04-29T08:01:08;2.50;;;2.30;;
1699;SDS011;847;48.058;7.810;2023-04-29T08:03:36;2.93;;;2.73;;
1699;SDS011;847;48.058;7.810;2023-04-29T08:06:03;3.97;;;2.40;;
1699;SDS011;847;48.058;7.810;2023-04-29T08:08:31;3.07;;;2.10;;
1699;SDS011;847;48.058;7.810;2023-04-29T08:10:58;2.70;;;2.50;;
1699;SDS011;847;48.058;7.810;2023-04-29T08:13:25;2.90;;;2.70;;
1699;SDS011;847;48.058;7.810;2023-04-29T08:15:53;3.70;;;2.20;;
1699;SDS011;847;48.058;7.810;2023-04-29T08:18:20;2.40;;;2.20;;
1699;SDS011;847;48.058;7.810;2023-04-29T08:20:47;4.20;;;2.80;;
1699;SDS011;847;48.058;7.810;2023-04-29T08:23:15;2.97;;;2.77;;
1699;SDS011;847;48.058;7.810;2023-04-29T08:25:42;3.67;;;2.07;;
1699;SDS011;847;48.058;7.810;2023-04-29T08:28:09;3.80;;;2.70;;
1699;SDS011;847;48.058;7.810;2023-04-29T08:30:37;3.33;;;3.03;;
1699;SDS011;847;48.058;7.810;2023-04-29T08:33:06;3.33;;;3.03;;
1699;SDS011;847;48.058;7.810;2023-04-29T08:35:33;3.27;;;3.07;;
1699;SDS011;847;48.058;7.810;2023-04-29T08:38:02;5.50;;;2.93;;
1699;SDS011;847;48.058;7.810;2023-04-29T08:40:32;3.23;;;2.93;;
1699;SDS011;847;48.058;7.810;2023-04-29T08:43:00;3.70;;;2.93;;
1699;SDS011;847;48.058;7.810;2023-04-29T08:45:28;3.93;;;3.43;;
1699;SDS011;847;48.058;7.810;2023-04-29T08:47:56;3.10;;;2.80;;
1699;SDS011;847;48.058;7.810;2023-04-29T08:50:25;3.77;;;3.47;;
1699;SDS011;847;48.058;7.810;2023-04-29T08:52:53;4.33;;;3.50;;
1699;SDS011;847;48.058;7.810;2023-04-29T08:55:20;3.70;;;3.20;;
1699;SDS011;847;48.058;7.810;2023-04-29T08:57:47;3.10;;;2.60;;
1699;SDS011;847;48.058;7.810;2023-04-29T09:00:15;3.90;;;3.60;;
1699;SDS011;847;48.058;7.810;2023-04-29T09:02:45;3.23;;;2.90;;
1699;SDS011;847;48.058;7.810;2023-04-29T09:05:14;3.10;;;2.80;;
1699;SDS011;847;48.058;7.810;2023-04-29T09:07:43;3.00;;;2.80;;
1699;SDS011;847;48.058;7.810;2023-04-29T09:10:10;4.67;;;3.47;;
1699;SDS011;847;48.058;7.810;2023-04-29T09:12:39;3.57;;;3.27;;
1699;SDS011;847;48.058;7.810;2023-04-29T09:15:06;3.40;;;3.10;;
1699;SDS011;847;48.058;7.810;2023-04-29T09:17:40;3.70;;;3.40;;
1699;SDS011;847;48.058;7.810;2023-04-29T09:20:26;6.60;;;3.60;;
1699;SDS011;847;48.058;7.810;2023-04-29T09:22:56;5.03;;;3.00;;
1699;SDS011;847;48.058;7.810;2023-04-29T09:25:25;3.70;;;3.30;;
1699;SDS011;847;48.058;7.810;2023-04-29T09:27:52;4.83;;;4.43;;
1699;SDS011;847;48.058;7.810;2023-04-29T09:30:19;4.47;;;3.87;;
1699;SDS011;847;48.058;7.810;2023-04-29T09:35:29;3.87;;;3.47;;
1699;SDS011;847;48.058;7.810;2023-04-29T09:38:08;3.80;;;3.50;;
1699;SDS011;847;48.058;7.810;2023-04-29T09:40:36;4.10;;;3.70;;
1699;SDS011;847;48.058;7.810;2023-04-29T09:43:03;3.80;;;3.53;;
1699;SDS011;847;48.058;7.810;2023-04-29T09:45:38;4.60;;;3.93;;
1699;SDS011;847;48.058;7.810;2023-04-29T09:48:07;3.73;;;3.30;;
1699;SDS011;847;48.058;7.810;2023-04-29T09:50:35;4.90;;;4.40;;
1699;SDS011;847;48.058;7.810;2023-04-29T09:53:02;6.23;;;5.63;;
1699;SDS011;847;48.058;7.810;2023-04-29T09:55:31;5.10;;;4.60;;
1699;SDS011;847;48.058;7.810;2023-04-29T09:57:57;4.97;;;4.57;;
1699;SDS011;847;48.058;7.810;2023-04-29T10:00:24;4.67;;;4.10;;
1699;SDS011;847;48.058;7.810;2023-04-29T10:02:55;5.43;;;4.93;;
1699;SDS011;847;48.058;7.810;2023-04-29T10:05:24;5.47;;;4.70;;
1699;SDS011;847;48.058;7.810;2023-04-29T10:07:53;4.84;;;4.42;;
1699;SDS011;847;48.058;7.810;2023-04-29T10:10:21;6.00;;;5.40;;
1699;SDS011;847;48.058;7.810;2023-04-29T10:12:51;4.90;;;4.50;;
1699;SDS011;847;48.058;7.810;2023-04-29T10:15:19;4.80;;;4.40;;
1699;SDS011;847;48.058;7.810;2023-04-29T10:17:53;4.33;;;3.93;;
1699;SDS011;847;48.058;7.810;2023-04-29T10:20:25;5.10;;;4.60;;
1699;SDS011;847;48.058;7.810;2023-04-29T10:22:53;4.70;;;3.70;;
1699;SDS011;847;48.058;7.810;2023-04-29T10:25:23;5.50;;;5.00;;
1699;SDS011;847;48.058;7.810;2023-04-29T10:27:53;5.07;;;4.40;;
1699;SDS011;847;48.058;7.810;2023-04-29T10:30:21;6.77;;;4.17;;
1699;SDS011;847;48.058;7.810;2023-04-29T10:32:48;4.30;;;3.90;;
1699;SDS011;847;48.058;7.810;2023-04-29T10:35:16;3.73;;;3.43;;
1699;SDS011;847;48.058;7.810;2023-04-29T10:37:46;6.17;;;4.23;;
1699;SDS011;847;48.058;7.810;2023-04-29T10:40:16;4.03;;;3.63;;
1699;SDS011;847;48.058;7.810;2023-04-29T10:42:47;5.43;;;4.53;;
1699;SDS011;847;48.058;7.810;2023-04-29T10:45:20;6.13;;;4.23;;
1699;SDS011;847;48.058;7.810;2023-04-29T10:50:39;4.93;;;3.60;;
1699;SDS011;847;48.058;7.810;2023-04-29T10:53:24;3.93;;;3.63;;
1699;SDS011;847;48.058;7.810;2023-04-29T10:55:52;3.80;;;3.50;;
1699;SDS011;847;48.058;7.810;2023-04-29T10:58:40;4.57;;;3.50;;
1699;SDS011;847;48.058;7.810;2023-04-29T11:01:10;4.40;;;3.83;;
1699;SDS011;847;48.058;7.810;2023-04-29T11:03:45;7.40;;;3.60;;
1699;SDS011;847;48.058;7.810;2023-04-29T11:06:13;4.00;;;3.50;;
1699;SDS011;847;48.058;7.810;2023-04-29T11:08:40;3.63;;;3.33;;
1699;SDS011;847;48.058;7.810;2023-04-29T11:11:07;4.47;;;4.07;;
1699;SDS011;847;48.058;7.810;2023-04-29T11:13:37;3.77;;;3.37;;
1699;SDS011;847;48.058;7.810;2023-04-29T11:16:05;3.90;;;3.10;;
1699;SDS011;847;48.058;7.810;2023-04-29T11:18:34;4.60;;;4.20;;
1699;SDS011;847;48.058;7.810;2023-04-29T11:21:11;4.07;;;3.67;;
1699;SDS011;847;48.058;7.810;2023-04-29T11:23:38;3.77;;;3.33;;
1699;SDS011;847;48.058;7.810;2023-04-29T11:26:06;3.60;;;3.30;;
1699;SDS011;847;48.058;7.810;2023-04-29T11:28:33;4.20;;;3.10;;
1699;SDS011;847;48.058;7.810;2023-04-29T11:31:00;4.00;;;2.90;;
1699;SDS011;847;48.058;7.810;2023-04-29T11:33:30;2.90;;;2.60;;
1699;SDS011;847;48.058;7.810;2023-04-29T11:35:59;3.07;;;2.77;;
1699;SDS011;847;48.058;7.810;2023-04-29T11:38:25;4.00;;;2.90;;
1699;SDS011;847;48.058;7.810;2023-04-29T11:41:03;3.30;;;3.00;;
1699;SDS011;847;48.058;7.810;2023-04-29T11:43:30;3.07;;;2.77;;
1699;SDS011;847;48.058;7.810;2023-04-29T11:45:56;2.93;;;2.73;;
1699;SDS011;847;48.058;7.810;2023-04-29T11:48:24;3.40;;;3.10;;
1699;SDS011;847;48.058;7.810;2023-04-29T11:50:52;3.80;;;2.77;;
1699;SDS011;847;48.058;7.810;2023-04-29T11:53:24;3.30;;;3.00;;
1699;SDS011;847;48.058;7.810;2023-04-29T11:55:52;2.70;;;2.50;;
1699;SDS011;847;48.058;7.810;2023-04-29T11:58:19;2.90;;;2.70;;
1699;SDS011;847;48.058;7.810;2023-04-29T12:00:46;3.00;;;2.70;;
1699;SDS011;847;48.058;7.810;2023-04-29T12:03:14;2.93;;;2.50;;
1699;SDS011;847;48.058;7.810;2023-04-29T12:05:44;3.63;;;2.97;;
1699;SDS011;847;48.058;7.810;2023-04-29T12:08:12;2.97;;;2.77;;
1699;SDS011;847;48.058;7.810;2023-04-29T12:10:40;2.33;;;2.13;;
1699;SDS011;847;48.058;7.810;2023-04-29T12:13:07;2.77;;;2.57;;
1699;SDS011;847;48.058;7.810;2023-04-29T12:15:35;3.83;;;2.90;;
1699;SDS011;847;48.058;7.810;2023-04-29T12:18:02;2.37;;;2.27;;
1699;SDS011;847;48.058;7.810;2023-04-29T12:20:28;2.80;;;2.57;;
1699;SDS011;847;48.058;7.810;2023-04-29T12:22:55;2.53;;;2.33;;
1699;SDS011;847;48.058;7.810;2023-04-29T12:25:35;3.43;;;2.50;;
1699;SDS011;847;48.058;7.810;2023-04-29T12:28:04;2.93;;;2.70;;
1699;SDS011;847;48.058;7.810;2023-04-29T12:30:33;3.00;;;2.63;;
1699;SDS011;847;48.058;7.810;2023-04-29T12:33:01;5.80;;;3.30;;
1699;SDS011;847;48.058;7.810;2023-04-29T12:35:27;4.40;;;3.73;;
1699;SDS011;847;48.058;7.810;2023-04-29T12:37:56;4.20;;;3.80;;
1699;SDS011;847;48.058;7.810;2023-04-29T12:40:24;3.60;;;3.30;;
1699;SDS011;847;48.058;7.810;2023-04-29T12:42:52;3.70;;;3.40;;
1699;SDS011;847;48.058;7.810;2023-04-29T12:45:26;4.30;;;3.90;;
1699;SDS011;847;48.058;7.810;2023-04-29T12:47:55;3.73;;;3.43;;
1699;SDS011;847;48.058;7.810;2023-04-29T12:50:27;4.13;;;3.47;;
1699;SDS011;847;48.058;7.810;2023-04-29T12:52:58;3.30;;;3.07;;
1699;SDS011;847;48.058;7.810;2023-04-29T12:55:26;3.90;;;2.93;;
1699;SDS011;847;48.058;7.810;2023-04-29T12:57:53;3.43;;;3.13;;
1699;SDS011;847;48.058;7.810;2023-04-29T13:00:20;3.37;;;3.10;;
1699;SDS011;847;48.058;7.810;2023-04-29T13:02:48;3.47;;;3.13;;
1699;SDS011;847;48.058;7.810;2023-04-29T13:05:14;3.37;;;3.10;;
1699;SDS011;847;48.058;7.810;2023-04-29T13:07:41;3.80;;;3.50;;
1699;SDS011;847;48.058;7.810;2023-04-29T13:10:08;8.43;;;3.90;;
1699;SDS011;847;48.058;7.810;2023-04-29T13:12:37;3.43;;;3.13;;
1699;SDS011;847;48.058;7.810;2023-04-29T13:15:05;4.07;;;3.33;;
1699;SDS011;847;48.058;7.810;2023-04-29T13:17:33;3.53;;;3.23;;
1699;SDS011;847;48.058;7.810;2023-04-29T13:20:01;5.10;;;3.33;;
1699;SDS011;847;48.058;7.810;2023-04-29T13:22:28;3.57;;;2.70;;
1699;SDS011;847;48.058;7.810;2023-04-29T13:24:55;3.67;;;3.23;;
1699;SDS011;847;48.058;7.810;2023-04-29T13:27:22;3.10;;;2.80;;
1699;SDS011;847;48.058;7.810;2023-04-29T13:29:49;3.33;;;3.13;;
1699;SDS011;847;48.058;7.810;2023-04-29T13:32:16;3.97;;;3.47;;
1699;SDS011;847;48.058;7.810;2023-04-29T13:34:45;4.30;;;3.90;;
1699;SDS011;847;48.058;7.810;2023-04-29T13:37:13;4.43;;;4.00;;
1699;SDS011;847;48.058;7.810;2023-04-29T13:39:41;4.90;;;4.40;;
1699;SDS011;847;48.058;7.810;2023-04-29T13:42:07;4.00;;;3.70;;
1699;SDS011;847;48.058;7.810;2023-04-29T13:44:35;5.90;;;4.03;;
1699;SDS011;847;48.058;7.810;2023-04-29T13:47:02;5.97;;;4.10;;
1699;SDS011;847;48.058;7.810;2023-04-29T13:49:30;5.47;;;3.70;;
1699;SDS011;847;48.058;7.810;2023-04-29T13:51:56;3.93;;;3.63;;
1699;SDS011;847;48.058;7.810;2023-04-29T13:54:25;3.57;;;3.27;;
1699;SDS011;847;48.058;7.810;2023-04-29T13:56:51;4.40;;;4.00;;
1699;SDS011;847;48.058;7.810;2023-04-29T13:59:18;4.63;;;3.57;;
1699;SDS011;847;48.058;7.810;2023-04-29T14:01:56;4.40;;;4.00;;
1699;SDS011;847;48.058;7.810;2023-04-29T14:04:23;3.80;;;3.50;;
1699;SDS011;847;48.058;7.810;2023-04-29T14:06:50;3.40;;;3.10;;
1699;SDS011;847;48.058;7.810;2023-04-29T14:09:17;3.93;;;3.53;;
1699;SDS011;847;48.058;7.810;2023-04-29T14:11:45;6.33;;;4.00;;
1699;SDS011;847;48.058;7.810;2023-04-29T14:14:12;4.70;;;3.60;;
1699;SDS011;847;48.058;7.810;2023-04-29T14:16:39;6.00;;;4.07;;
1699;SDS011;847;48.058;7.810;2023-04-29T14:19:07;4.07;;;3.67;;
1699;SDS011;847;48.058;7.810;2023-04-29T14:21:34;4.67;;;4.03;;
1699;SDS011;847;48.058;7.810;2023-04-29T14:24:01;9.50;;;4.60;;
1699;SDS011;847;48.058;7.810;2023-04-29T14:26:28;4.43;;;4.03;;
1699;SDS011;847;48.058;7.810;2023-04-29T14:28:56;5.80;;;5.20;;
1699;SDS011;847;48.058;7.810;2023-04-29T14:31:23;4.87;;;4.37;;
1699;SDS011;847;48.058;7.810;2023-04-29T14:33:51;4.77;;;4.37;;
1699;SDS011;847;48.058;7.810;2023-04-29T14:36:19;5.43;;;3.73;;
1699;SDS011;847;48.058;7.810;2023-04-29T14:38:46;3.63;;;3.03;;
1699;SDS011;847;48.058;7.810;2023-04-29T14:41:13;4.23;;;3.83;;
1699;SDS011;847;48.058;7.810;2023-04-29T14:43:40;4.70;;;4.23;;
1699;SDS011;847;48.058;7.810;2023-04-29T14:46:07;4.87;;;4.33;;
1699;SDS011;847;48.058;7.810;2023-04-29T14:48:34;4.00;;;3.70;;
1699;SDS011;847;48.058;7.810;2023-04-29T14:51:01;6.63;;;3.90;;
1699;SDS011;847;48.058;7.810;2023-04-29T14:53:29;3.80;;;3.43;;
1699;SDS011;847;48.058;7.810;2023-04-29T14:55:55;3.73;;;3.33;;
1699;SDS011;847;48.058;7.810;2023-04-29T14:58:22;4.03;;;3.63;;
1699;SDS011;847;48.058;7.810;2023-04-29T15:00:50;4.83;;;4.37;;
1699;SDS011;847;48.058;7.810;2023-04-29T15:03:16;5.90;;;4.60;;
1699;SDS011;847;48.058;7.810;2023-04-29T15:05:43;4.70;;;3.90;;
1699;SDS011;847;48.058;7.810;2023-04-29T15:08:10;6.10;;;5.13;;
1699;SDS011;847;48.058;7.810;2023-04-29T15:10:38;6.47;;;4.73;;
1699;SDS011;847;48.058;7.810;2023-04-29T15:13:05;4.67;;;4.23;;
1699;SDS011;847;48.058;7.810;2023-04-29T15:15:32;7.50;;;5.93;;
1699;SDS011;847;48.058;7.810;2023-04-29T15:17:58;7.00;;;5.57;;
1699;SDS011;847;48.058;7.810;2023-04-29T15:20:26;5.93;;;4.70;;
1699;SDS011;847;48.058;7.810;2023-04-29T15:22:52;5.03;;;4.63;;
1699;SDS011;847;48.058;7.810;2023-04-29T15:25:19;7.30;;;5.30;;
1699;SDS011;847;48.058;7.810;2023-04-29T15:27:47;4.60;;;4.20;;
1699;SDS011;847;48.058;7.810;2023-04-29T15:30:14;4.67;;;4.27;;
1699;SDS011;847;48.058;7.810;2023-04-29T15:32:42;6.00;;;4.93;;
1699;SDS011;847;48.058;7.810;2023-04-29T15:35:09;5.57;;;5.07;;
1699;SDS011;847;48.058;7.810;2023-04-29T15:37:36;5.40;;;4.90;;
1699;SDS011;847;48.058;7.810;2023-04-29T15:40:04;5.37;;;4.50;;